createdAt,value
2022-10-03T00:01:35.556Z,45.50
2022-10-03T00:04:20.669Z,45.41
2022-10-03T00:06:51.057Z,45.62
2022-10-03T00:09:28.867Z,45.40
2022-10-03T00:12:13.680Z,45.29
2022-10-03T00:14:41.977Z,45.68
2022-10-03T00:17:14.386Z,45.52
2022-10-03T00:19:47.580Z,45.44
2022-10-03T00:22:18.452Z,45.67
2022-10-03T00:24:44.946Z,45.63
2022-10-03T00:27:27.061Z,45.45
2022-10-03T00:30:12.079Z,45.64
2022-10-03T00:32:52.391Z,45.22
2022-10-03T00:35:28.047Z,45.55
2022-10-03T00:38:03.680Z,45.41
2022-10-03T00:40:48.202Z,45.81
2022-10-03T00:43:31.103Z,45.89
2022-10-03T00:46:10.961Z,45.76
2022-10-03T00:48:56.028Z,45.62
2022-10-03T00:51:51.889Z,45.44
2022-10-03T00:54:24.433Z,45.89
2022-10-03T00:57:05.875Z,45.80
2022-10-03T00:59:41.927Z,45.74
2022-10-03T01:02:36.247Z,45.60
2022-10-03T01:05:40.299Z,45.65
2022-10-03T01:08:24.861Z,45.88
2022-10-03T01:11:11.247Z,45.92
2022-10-03T01:14:22.804Z,45.48
2022-10-03T01:17:10.721Z,45.86
2022-10-03T01:20:21.723Z,45.91
2022-10-03T01:23:06.807Z,45.82
2022-10-03T01:25:33.253Z,45.93
2022-10-03T01:28:44.903Z,45.90
2022-10-03T01:31:12.627Z,45.53
2022-10-03T01:34:23.683Z,45.70
2022-10-03T01:37:03.325Z,45.59
2022-10-03T01:40:05.028Z,45.72
2022-10-03T01:43:21.082Z,45.88
2022-10-03T01:45:55.386Z,45.91
2022-10-03T01:48:25.937Z,45.80
2022-10-03T01:51:00.374Z,46.00
2022-10-03T01:53:59.725Z,45.72
2022-10-03T01:56:39.938Z,45.84
2022-10-03T01:59:08.246Z,46.16
2022-10-03T02:01:59.994Z,45.82
2022-10-03T02:04:48.761Z,45.84
2022-10-03T02:07:29.999Z,45.79
2022-10-03T02:10:02.534Z,45.88
2022-10-03T02:12:36.956Z,45.92
2022-10-03T02:15:19.505Z,45.81
2022-10-03T02:18:00.461Z,45.96
2022-10-03T02:20:47.876Z,45.85
2022-10-03T02:23:27.548Z,45.90
2022-10-03T02:26:07.581Z,45.96
2022-10-03T02:31:21.844Z,45.86
2022-10-03T02:34:16.036Z,46.08
2022-10-03T02:37:03.221Z,46.12
2022-10-03T02:39:44.869Z,46.05
2022-10-03T02:42:50.215Z,45.92
2022-10-03T02:45:28.457Z,46.03
2022-10-03T02:48:36.065Z,46.15
2022-10-03T02:53:53.027Z,46.12
2022-10-03T02:56:56.685Z,46.05
2022-10-03T02:59:47.220Z,45.92
2022-10-03T03:02:29.275Z,46.02
2022-10-03T03:05:33.313Z,46.33
2022-10-03T03:08:24.776Z,46.05
2022-10-03T03:11:21.660Z,46.12
2022-10-03T03:14:04.409Z,45.86
2022-10-03T03:16:49.882Z,46.39
2022-10-03T03:19:41.545Z,46.36
2022-10-03T03:22:36.079Z,46.09
2022-10-03T03:25:16.484Z,46.05
2022-10-03T03:28:09.840Z,46.21
2022-10-03T03:30:48.754Z,46.00
2022-10-03T03:33:26.566Z,46.32
2022-10-03T03:36:12.058Z,46.23
2022-10-03T03:39:00.374Z,46.20
2022-10-03T03:41:45.388Z,46.12
2022-10-03T03:44:11.874Z,46.04
2022-10-03T03:47:02.904Z,46.18
2022-10-03T03:49:49.326Z,46.48
2022-10-03T03:52:28.297Z,46.10
2022-10-03T03:55:06.892Z,46.30
2022-10-03T03:58:05.774Z,46.27
2022-10-03T04:00:57.919Z,46.24
2022-10-03T04:04:09.106Z,46.35
2022-10-03T04:06:57.930Z,46.38
2022-10-03T04:10:01.782Z,46.22
2022-10-03T04:13:07.697Z,46.38
2022-10-03T04:15:55.870Z,46.15
2022-10-03T04:19:10.249Z,46.22
2022-10-03T04:21:52.767Z,46.19
2022-10-03T04:24:27.878Z,46.14
2022-10-03T04:27:08.658Z,46.31
2022-10-03T04:29:53.374Z,46.35
2022-10-03T04:32:50.524Z,46.43
2022-10-03T04:35:23.204Z,46.57
2022-10-03T04:37:52.741Z,46.73
2022-10-03T04:40:25.491Z,46.41
2022-10-03T04:42:51.965Z,46.45
2022-10-03T04:45:36.267Z,46.65
2022-10-03T04:48:16.653Z,46.24
2022-10-03T04:50:49.861Z,46.36
2022-10-03T04:53:33.777Z,46.10
2022-10-03T04:56:24.444Z,46.14
2022-10-03T04:58:55.513Z,46.30
2022-10-03T05:01:53.601Z,46.38
2022-10-03T05:04:45.253Z,46.16
2022-10-03T05:07:22.464Z,46.50
2022-10-03T05:10:06.631Z,46.55
2022-10-03T05:12:48.127Z,46.54
2022-10-03T05:15:21.019Z,46.26
2022-10-03T05:18:29.948Z,46.25
2022-10-03T05:21:05.905Z,46.43
2022-10-03T05:23:46.553Z,46.32
2022-10-03T05:26:44.029Z,46.37
2022-10-03T05:29:15.939Z,46.28
2022-10-03T05:31:45.062Z,46.37
2022-10-03T05:34:54.674Z,46.47
2022-10-03T05:38:08.810Z,46.31
2022-10-03T05:40:42.509Z,46.48
2022-10-03T05:43:41.919Z,46.32
2022-10-03T05:46:41.175Z,46.39
2022-10-03T05:49:38.953Z,46.94
2022-10-03T05:52:25.416Z,46.95
2022-10-03T05:55:19.845Z,46.60
2022-10-03T05:58:15.099Z,46.86
2022-10-03T06:00:51.395Z,46.64
2022-10-03T06:03:53.061Z,46.98
2022-10-03T06:06:29.016Z,47.04
2022-10-03T06:09:23.922Z,47.53
2022-10-03T06:11:59.227Z,47.38
2022-10-03T06:14:29.127Z,47.57
2022-10-03T06:16:58.418Z,47.72
2022-10-03T06:20:00.494Z,47.61
2022-10-03T06:22:35.289Z,47.61
2022-10-03T06:25:10.886Z,47.44
2022-10-03T06:28:11.050Z,47.63
2022-10-03T06:31:15.069Z,47.71
2022-10-03T06:34:06.529Z,47.44
2022-10-03T06:37:10.061Z,47.64
2022-10-03T06:40:13.500Z,47.49
2022-10-03T06:43:34.046Z,47.66
2022-10-03T06:46:28.606Z,47.40
2022-10-03T06:49:29.680Z,47.57
2022-10-03T06:52:43.938Z,47.52
2022-10-03T06:55:13.063Z,47.75
2022-10-03T06:57:45.908Z,47.72
2022-10-03T07:00:15.366Z,47.33
2022-10-03T07:02:50.923Z,47.41
2022-10-03T07:06:07.049Z,47.58
2022-10-03T07:08:53.326Z,47.41
2022-10-03T07:12:01.982Z,47.39
2022-10-03T07:14:48.222Z,47.59
2022-10-03T07:17:39.078Z,47.31
2022-10-03T07:20:29.599Z,47.71
2022-10-03T07:23:27.039Z,47.94
2022-10-03T07:26:12.093Z,47.78
2022-10-03T07:29:15.877Z,47.55
2022-10-03T07:31:42.764Z,47.64
2022-10-03T07:34:12.631Z,47.63
2022-10-03T07:37:26.883Z,47.49
2022-10-03T07:40:21.102Z,47.23
2022-10-03T07:43:03.492Z,47.22
2022-10-03T07:45:39.434Z,46.99
2022-10-03T07:48:43.546Z,47.18
2022-10-03T07:52:00.118Z,47.04
2022-10-03T07:54:37.171Z,46.98
2022-10-03T07:57:06.729Z,47.30
2022-10-03T07:59:33.212Z,46.91
2022-10-03T08:02:27.656Z,47.11
2022-10-03T08:05:15.921Z,46.98
2022-10-03T08:07:56.597Z,46.84
2022-10-03T08:10:50.435Z,46.49
2022-10-03T08:13:34.974Z,46.72
2022-10-03T08:16:33.993Z,46.50
2022-10-03T08:19:40.724Z,46.74
2022-10-03T08:22:25.873Z,46.86
2022-10-03T08:25:25.072Z,46.81
2022-10-03T08:28:06.800Z,46.40
2022-10-03T08:31:09.778Z,46.23
2022-10-03T08:33:51.605Z,46.31
2022-10-03T08:36:42.673Z,46.26
2022-10-03T08:39:11.857Z,46.46
2022-10-03T08:41:50.212Z,46.51
2022-10-03T08:44:41.397Z,45.99
2022-10-03T08:47:34.035Z,46.18
2022-10-03T08:50:15.609Z,46.08
2022-10-03T08:53:03.817Z,46.08
2022-10-03T08:55:51.042Z,46.09
2022-10-03T08:58:51.798Z,46.28
2022-10-03T09:01:32.513Z,46.34
2022-10-03T09:04:29.465Z,46.20
2022-10-03T09:07:17.557Z,46.00
2022-10-03T09:10:04.732Z,46.34
2022-10-03T09:13:05.161Z,46.23
2022-10-03T09:15:44.077Z,46.27
2022-10-03T09:18:49.134Z,46.15
2022-10-03T09:21:47.563Z,45.98
2022-10-03T09:24:44.212Z,46.09
2022-10-03T09:27:31.915Z,45.99
2022-10-03T09:30:35.394Z,46.16
2022-10-03T09:33:27.422Z,46.40
2022-10-03T09:36:15.291Z,46.40
2022-10-03T09:39:02.803Z,46.33
2022-10-03T09:41:49.282Z,46.27
2022-10-03T09:44:43.852Z,46.35
2022-10-03T09:47:46.995Z,46.17
2022-10-03T09:51:04.539Z,46.20
2022-10-03T09:53:55.682Z,46.48
2022-10-03T09:56:41.053Z,46.15
2022-10-03T09:59:34.869Z,46.30
2022-10-03T10:02:23.274Z,46.19
2022-10-03T10:05:01.607Z,46.05
2022-10-03T10:07:54.192Z,45.87
2022-10-03T10:10:29.707Z,45.87
2022-10-03T10:13:14.161Z,45.75
2022-10-03T10:16:11.601Z,45.65
2022-10-03T10:18:50.603Z,46.11
2022-10-03T10:21:44.651Z,46.08
2022-10-03T10:24:55.510Z,46.02
2022-10-03T10:27:43.887Z,45.72
2022-10-03T10:30:28.180Z,45.72
2022-10-03T10:33:24.382Z,45.68
2022-10-03T10:36:06.811Z,45.81
2022-10-03T10:38:51.649Z,45.69
2022-10-03T10:41:54.499Z,45.66
2022-10-03T10:44:52.014Z,45.62
2022-10-03T10:47:53.716Z,45.64
2022-10-03T10:50:42.090Z,45.80
2022-10-03T10:53:46.074Z,45.77
2022-10-03T10:56:42.883Z,45.77
2022-10-03T10:59:34.516Z,45.35
2022-10-03T11:02:34.539Z,45.96
2022-10-03T11:05:34.422Z,45.41
2022-10-03T11:08:38.568Z,45.17
2022-10-03T11:11:41.881Z,45.17
2022-10-03T11:14:42.381Z,45.32
2022-10-03T11:17:28.089Z,45.24
2022-10-03T11:20:15.956Z,45.51
2022-10-03T11:23:10.156Z,45.22
2022-10-03T11:26:04.765Z,45.14
2022-10-03T11:29:16.489Z,45.40
2022-10-03T11:32:11.212Z,45.45
2022-10-03T11:35:15.494Z,45.33
2022-10-03T11:37:41.853Z,45.72
2022-10-03T11:40:22.597Z,45.60
2022-10-03T11:43:27.564Z,45.59
2022-10-03T11:46:33.755Z,45.38
2022-10-03T11:49:22.784Z,45.70
2022-10-03T11:52:04.612Z,45.31
2022-10-03T11:54:34.800Z,45.43
2022-10-03T11:57:09.409Z,45.43
2022-10-03T11:59:38.930Z,45.24
2022-10-03T12:02:17.738Z,45.14
2022-10-03T12:05:34.339Z,45.08
2022-10-03T12:08:39.856Z,45.18
2022-10-03T12:11:58.217Z,45.30
2022-10-03T12:14:30.288Z,44.90
2022-10-03T12:17:16.915Z,45.47
2022-10-03T12:19:46.176Z,45.04
2022-10-03T12:22:47.282Z,44.87
2022-10-03T12:25:19.590Z,45.27
2022-10-03T12:28:23.050Z,44.99
2022-10-03T12:30:54.146Z,45.03
2022-10-03T12:33:42.164Z,45.17
2022-10-03T12:36:19.181Z,44.91
2022-10-03T12:39:04.510Z,44.78
2022-10-03T12:41:54.345Z,44.75
2022-10-03T12:44:51.473Z,45.18
2022-10-03T12:47:27.627Z,44.87
2022-10-03T12:50:16.293Z,45.05
2022-10-03T12:52:54.479Z,45.20
2022-10-03T12:55:31.273Z,44.84
2022-10-03T12:58:34.785Z,44.76
2022-10-03T13:01:21.355Z,44.94
2022-10-03T13:03:52.293Z,45.18
2022-10-03T13:07:02.406Z,45.12
2022-10-03T13:09:50.579Z,45.04
2022-10-03T13:12:35.512Z,44.77
2022-10-03T13:15:34.280Z,44.83
2022-10-03T13:18:16.133Z,45.15
2022-10-03T13:21:26.725Z,44.91
2022-10-03T13:24:07.033Z,44.89
2022-10-03T13:27:06.868Z,44.84
2022-10-03T13:29:43.473Z,45.02
2022-10-03T13:32:36.867Z,45.40
2022-10-03T13:35:35.696Z,45.29
2022-10-03T13:38:17.784Z,45.13
2022-10-03T13:40:52.155Z,45.03
2022-10-03T13:43:25.648Z,44.87
2022-10-03T13:45:56.927Z,44.90
2022-10-03T13:48:27.155Z,45.12
2022-10-03T13:51:02.391Z,45.29
2022-10-03T13:54:01.239Z,45.28
2022-10-03T13:56:46.458Z,45.28
2022-10-03T13:59:28.618Z,45.27
2022-10-03T14:02:10.478Z,45.00
2022-10-03T14:04:47.877Z,45.12
2022-10-03T14:07:27.846Z,44.89
2022-10-03T14:10:18.878Z,44.97
2022-10-03T14:13:12.261Z,44.87
2022-10-03T14:15:49.314Z,44.86
2022-10-03T14:18:37.790Z,44.78
2022-10-03T14:21:26.210Z,45.14
2022-10-03T14:24:13.932Z,45.08
2022-10-03T14:26:49.687Z,45.22
2022-10-03T14:29:21.552Z,44.92
2022-10-03T14:32:45.488Z,44.94
2022-10-03T14:35:46.118Z,45.06
2022-10-03T14:39:02.388Z,44.83
2022-10-03T14:41:41.385Z,44.87
2022-10-03T14:44:17.614Z,45.10
2022-10-03T14:47:11.050Z,44.87
2022-10-03T14:49:54.928Z,44.90
2022-10-03T14:52:27.232Z,45.07
2022-10-03T14:54:56.597Z,45.22
2022-10-03T14:58:11.518Z,45.12
2022-10-03T15:00:45.693Z,44.64
2022-10-03T15:03:19.495Z,45.18
2022-10-03T15:06:00.073Z,44.92
2022-10-03T15:08:32.350Z,45.19
2022-10-03T15:10:59.531Z,45.26
2022-10-03T15:13:27.633Z,44.86
2022-10-03T15:15:55.646Z,45.08
2022-10-03T15:18:24.313Z,45.06
2022-10-03T15:20:53.304Z,44.92
2022-10-03T15:23:40.413Z,44.76
2022-10-03T15:26:15.506Z,44.77
2022-10-03T15:28:47.804Z,45.05
2022-10-03T15:31:48.491Z,44.84
2022-10-03T15:34:21.233Z,44.86
2022-10-03T15:36:50.272Z,44.88
2022-10-03T15:39:28.900Z,44.76
2022-10-03T15:42:07.806Z,44.85
2022-10-03T15:44:39.725Z,44.95
2022-10-03T15:47:11.581Z,44.98
2022-10-03T15:49:54.470Z,44.97
2022-10-03T15:52:33.607Z,45.38
2022-10-03T15:55:11.526Z,44.92
2022-10-03T15:57:46.298Z,45.33
2022-10-03T16:00:33.433Z,45.26
2022-10-03T16:03:11.989Z,44.98
2022-10-03T16:05:52.027Z,44.89
2022-10-03T16:08:22.014Z,44.87
2022-10-03T16:10:58.422Z,44.96
2022-10-03T16:13:41.166Z,45.12
2022-10-03T16:16:13.717Z,45.31
2022-10-03T16:18:52.062Z,44.99
2022-10-03T16:21:33.273Z,45.21
2022-10-03T16:24:01.461Z,44.91
2022-10-03T16:26:31.699Z,44.96
2022-10-03T16:29:10.514Z,45.29
2022-10-03T16:31:41.437Z,45.09
2022-10-03T16:34:16.224Z,44.91
2022-10-03T16:36:47.658Z,45.00
2022-10-03T16:39:23.684Z,45.05
2022-10-03T16:41:54.348Z,45.11
2022-10-03T16:44:25.160Z,45.08
2022-10-03T16:46:54.417Z,45.25
2022-10-03T16:49:45.521Z,45.19
2022-10-03T16:52:18.831Z,44.92
2022-10-03T16:54:47.146Z,44.98
2022-10-03T16:57:19.829Z,45.17
2022-10-03T16:59:48.947Z,45.31
2022-10-03T17:02:18.804Z,45.15
2022-10-03T17:04:47.873Z,44.89
2022-10-03T17:07:18.891Z,45.10
2022-10-03T17:09:47.331Z,45.03
2022-10-03T17:12:25.074Z,45.06
2022-10-03T17:14:53.936Z,45.09
2022-10-03T17:18:00.228Z,45.53
2022-10-03T17:20:47.962Z,45.20
2022-10-03T17:23:24.576Z,45.17
2022-10-03T17:26:00.510Z,45.25
2022-10-03T17:28:38.805Z,45.45
2022-10-03T17:31:15.371Z,45.13
2022-10-03T17:33:44.731Z,45.50
2022-10-03T17:36:14.157Z,45.32
2022-10-03T17:38:52.947Z,45.60
2022-10-03T17:42:04.629Z,45.55
2022-10-03T17:44:51.290Z,45.58
2022-10-03T17:47:19.102Z,45.86
2022-10-03T17:50:04.250Z,45.43
2022-10-03T17:52:31.490Z,45.84
2022-10-03T17:55:02.206Z,45.47
2022-10-03T17:57:37.463Z,45.65
2022-10-03T18:00:25.299Z,45.69
2022-10-03T18:02:59.581Z,45.73
2022-10-03T18:05:29.778Z,45.47
2022-10-03T18:07:57.580Z,45.79
2022-10-03T18:10:29.287Z,45.38
2022-10-03T18:12:58.536Z,45.49
2022-10-03T18:15:41.309Z,45.48
2022-10-03T18:18:16.901Z,45.51
2022-10-03T18:21:08.037Z,45.51
2022-10-03T18:23:59.330Z,45.69
2022-10-03T18:26:28.221Z,45.47
2022-10-03T18:29:19.125Z,45.52
2022-10-03T18:31:55.470Z,45.51
2022-10-03T18:34:28.156Z,45.66
2022-10-03T18:36:55.426Z,45.58
2022-10-03T18:39:31.361Z,45.31
2022-10-03T18:42:00.570Z,45.55
2022-10-03T18:44:29.686Z,45.79
2022-10-03T18:47:14.354Z,45.44
2022-10-03T18:49:42.141Z,45.95
2022-10-03T18:52:19.515Z,45.87
2022-10-03T18:55:01.867Z,45.93
2022-10-03T18:57:36.833Z,45.66
2022-10-03T19:00:25.932Z,45.78
2022-10-03T19:03:06.982Z,45.82
2022-10-03T19:05:34.947Z,46.13
2022-10-03T19:08:18.439Z,45.96
2022-10-03T19:10:55.354Z,45.99
2022-10-03T19:13:45.483Z,45.91
2022-10-03T19:16:40.820Z,46.01
2022-10-03T19:19:12.989Z,45.90
2022-10-03T19:21:40.902Z,46.04
2022-10-03T19:24:17.474Z,45.71
2022-10-03T19:26:58.089Z,45.84
2022-10-03T19:29:30.859Z,45.69
2022-10-03T19:32:04.308Z,45.82
2022-10-03T19:34:40.685Z,45.86
2022-10-03T19:37:13.606Z,45.57
2022-10-03T19:39:40.197Z,45.62
2022-10-03T19:42:22.544Z,45.81
2022-10-03T19:44:49.606Z,45.62
2022-10-03T19:47:40.589Z,45.59
2022-10-03T19:50:20.453Z,45.37
2022-10-03T19:52:50.113Z,45.63
2022-10-03T19:55:34.161Z,45.30
2022-10-03T19:58:05.876Z,45.36
2022-10-03T20:00:37.153Z,45.46
2022-10-03T20:03:23.015Z,45.49
2022-10-03T20:05:53.598Z,45.48
2022-10-03T20:08:29.024Z,45.57
2022-10-03T20:11:01.658Z,45.27
2022-10-03T20:13:28.651Z,45.31
2022-10-03T20:15:56.840Z,45.33
2022-10-03T20:18:30.990Z,45.62
2022-10-03T20:20:58.897Z,45.58
2022-10-03T20:23:26.840Z,45.50
2022-10-03T20:26:19.662Z,45.46
2022-10-03T20:29:20.162Z,45.46
2022-10-03T20:31:47.463Z,45.64
2022-10-03T20:34:16.671Z,45.57
2022-10-03T20:36:48.016Z,45.26
2022-10-03T20:39:28.864Z,45.51
2022-10-03T20:42:10.137Z,45.21
2022-10-03T20:44:48.599Z,45.11
2022-10-03T20:47:41.065Z,45.14
2022-10-03T20:50:21.257Z,45.19
2022-10-03T20:52:57.778Z,45.29
2022-10-03T20:55:28.157Z,45.28
2022-10-03T20:58:05.612Z,45.11
2022-10-03T21:00:32.873Z,45.56
2022-10-03T21:03:04.835Z,45.16
2022-10-03T21:05:36.990Z,44.87
2022-10-03T21:08:13.624Z,45.12
2022-10-03T21:10:44.835Z,45.24
2022-10-03T21:13:22.542Z,44.94
2022-10-03T21:15:51.688Z,45.08
2022-10-03T21:18:23.032Z,44.97
2022-10-03T21:21:07.901Z,45.24
2022-10-03T21:23:43.264Z,45.46
2022-10-03T21:26:10.948Z,44.99
2022-10-03T21:28:38.663Z,45.25
2022-10-03T21:31:11.292Z,45.58
2022-10-03T21:33:55.820Z,45.21
2022-10-03T21:36:39.376Z,45.35
2022-10-03T21:39:18.020Z,45.23
2022-10-03T21:41:49.635Z,44.75
2022-10-03T21:44:42.303Z,45.07
2022-10-03T21:47:20.619Z,44.93
2022-10-03T21:49:58.600Z,45.26
2022-10-03T21:52:34.146Z,45.33
2022-10-03T21:55:51.367Z,45.22
2022-10-03T21:58:49.897Z,44.86
2022-10-03T22:01:38.409Z,45.25
2022-10-03T22:04:31.931Z,45.62
2022-10-03T22:07:00.969Z,45.44
2022-10-03T22:09:27.872Z,45.14
2022-10-03T22:12:03.298Z,45.14
2022-10-03T22:14:43.077Z,45.18
2022-10-03T22:17:23.838Z,45.56
2022-10-03T22:20:22.965Z,45.02
2022-10-03T22:23:16.402Z,45.05
2022-10-03T22:26:04.232Z,45.22
2022-10-03T22:28:48.458Z,45.12
2022-10-03T22:31:19.673Z,45.63
2022-10-03T22:33:52.981Z,45.44
2022-10-03T22:36:19.713Z,45.40
2022-10-03T22:38:47.249Z,45.64
2022-10-03T22:41:17.078Z,45.61
2022-10-03T22:43:43.995Z,45.14
2022-10-03T22:46:14.436Z,45.23
2022-10-03T22:48:49.402Z,45.59
2022-10-03T22:51:16.435Z,45.30
2022-10-03T22:53:49.404Z,45.25
2022-10-03T22:56:48.838Z,45.20
2022-10-03T22:59:24.543Z,45.58
2022-10-03T23:01:52.877Z,45.11
2022-10-03T23:04:37.307Z,45.33
2022-10-03T23:07:15.652Z,45.55
2022-10-03T23:09:51.328Z,45.67
2022-10-03T23:12:19.917Z,45.65
2022-10-03T23:14:51.362Z,45.53
2022-10-03T23:17:47.376Z,45.02
2022-10-03T23:20:19.938Z,45.47
2022-10-03T23:22:51.366Z,45.59
2022-10-03T23:25:23.220Z,45.46
2022-10-03T23:28:16.663Z,45.26
2022-10-03T23:30:48.001Z,45.14
2022-10-03T23:33:17.066Z,45.35
2022-10-03T23:35:44.152Z,45.31
2022-10-03T23:38:33.186Z,45.25
2022-10-03T23:41:04.883Z,45.70
2022-10-03T23:44:00.509Z,45.41
2022-10-03T23:46:30.058Z,45.65
2022-10-03T23:48:59.249Z,45.74
2022-10-03T23:51:35.225Z,45.22
2022-10-03T23:54:08.053Z,45.23
2022-10-03T23:56:44.306Z,45.53
2022-10-03T23:59:13.729Z,45.74
